createdAt,value
2018-02-20T00:01:04.171Z,53.20
2018-02-20T00:03:31.727Z,53.30
2018-02-20T00:05:59.262Z,52.80
2018-02-20T00:08:26.795Z,53.10
2018-02-20T00:10:54.309Z,53.20
2018-02-20T00:13:21.864Z,53.30
2018-02-20T00:15:49.387Z,53.30
2018-02-20T00:18:16.925Z,53.20
2018-02-20T00:20:44.518Z,53.00
2018-02-20T00:23:12.824Z,52.80
2018-02-20T00:25:40.381Z,52.80
2018-02-20T00:28:08.711Z,52.80
2018-02-20T00:30:36.260Z,52.80
2018-02-20T00:33:03.819Z,52.60
2018-02-20T00:35:31.344Z,52.80
2018-02-20T00:37:58.901Z,53.00
2018-02-20T00:40:26.445Z,53.10
2018-02-20T00:42:54.004Z,52.80
2018-02-20T00:45:22.297Z,52.80
2018-02-20T00:47:50.623Z,52.60
2018-02-20T00:50:18.135Z,52.60
2018-02-20T00:52:45.717Z,52.50
2018-02-20T00:55:13.242Z,52.60
2018-02-20T00:57:41.557Z,52.90
2018-02-20T01:00:09.096Z,52.80
2018-02-20T01:02:36.677Z,53.00
2018-02-20T01:05:04.241Z,53.10
2018-02-20T01:07:31.800Z,52.80
2018-02-20T01:09:59.357Z,52.70
2018-02-20T01:12:26.871Z,52.50
2018-02-20T01:14:54.430Z,52.50
2018-02-20T01:17:22.771Z,52.90
2018-02-20T01:19:50.356Z,52.80
2018-02-20T01:22:17.926Z,53.10
2018-02-20T01:24:45.435Z,53.00
2018-02-20T01:27:12.948Z,52.80
2018-02-20T01:29:41.273Z,52.70
2018-02-20T01:32:08.844Z,52.60
2018-02-20T01:34:36.404Z,52.60
2018-02-20T01:37:03.920Z,52.70
2018-02-20T01:39:31.564Z,52.80
2018-02-20T01:41:59.124Z,53.10
2018-02-20T01:44:26.740Z,52.50
2018-02-20T01:46:54.328Z,52.30
2018-02-20T01:49:21.871Z,52.30
2018-02-20T01:51:49.416Z,52.80
2018-02-20T01:54:16.975Z,52.60
2018-02-20T01:56:44.536Z,52.50
2018-02-20T01:59:12.060Z,52.60
2018-02-20T02:01:40.408Z,52.40
2018-02-20T02:04:07.963Z,52.40
2018-02-20T02:06:35.493Z,52.40
2018-02-20T02:09:03.031Z,52.60
2018-02-20T02:11:30.590Z,52.50
2018-02-20T02:13:58.101Z,52.00
2018-02-20T02:16:25.645Z,52.20
2018-02-20T02:18:53.175Z,52.20
2018-02-20T02:21:20.764Z,52.20
2018-02-20T02:23:48.325Z,52.00
2018-02-20T02:26:15.840Z,52.40
2018-02-20T02:28:43.403Z,52.50
2018-02-20T02:31:11.728Z,52.20
2018-02-20T02:33:39.308Z,52.20
2018-02-20T02:36:06.829Z,52.10
2018-02-20T02:38:34.430Z,51.60
2018-02-20T02:41:01.992Z,52.30
2018-02-20T02:43:29.559Z,52.40
2018-02-20T02:45:57.874Z,52.00
2018-02-20T02:48:25.450Z,52.00
2018-02-20T02:50:53.006Z,52.00
2018-02-20T02:53:20.553Z,52.20
2018-02-20T02:55:48.105Z,52.00
2018-02-20T02:58:15.636Z,51.90
2018-02-20T03:00:43.172Z,51.80
2018-02-20T03:03:10.719Z,51.90
2018-02-20T03:05:38.270Z,52.00
2018-02-20T03:08:05.840Z,51.70
2018-02-20T03:10:33.367Z,52.00
2018-02-20T03:13:00.928Z,51.80
2018-02-20T03:15:28.460Z,51.90
2018-02-20T03:17:56.824Z,51.20
2018-02-20T03:20:24.429Z,51.10
2018-02-20T03:22:51.985Z,51.40
2018-02-20T03:25:19.505Z,51.70
2018-02-20T03:27:47.067Z,51.50
2018-02-20T03:30:14.596Z,51.30
2018-02-20T03:32:42.164Z,51.20
2018-02-20T03:35:09.682Z,51.00
2018-02-20T03:37:37.244Z,51.10
2018-02-20T03:40:04.800Z,51.30
2018-02-20T03:42:32.338Z,51.30
2018-02-20T03:45:00.677Z,51.40
2018-02-20T03:47:28.200Z,51.30
2018-02-20T03:49:55.727Z,51.30
2018-02-20T03:52:23.284Z,51.50
2018-02-20T03:54:50.850Z,51.40
2018-02-20T03:57:18.408Z,51.30
2018-02-20T03:59:45.960Z,51.30
2018-02-20T04:02:13.483Z,51.30
2018-02-20T04:04:41.019Z,51.10
2018-02-20T04:07:08.576Z,51.50
2018-02-20T04:09:36.110Z,51.30
2018-02-20T04:12:03.663Z,51.30
2018-02-20T04:14:31.229Z,51.40
2018-02-20T04:16:58.775Z,51.40
2018-02-20T04:19:26.329Z,51.50
2018-02-20T04:21:53.856Z,51.60
2018-02-20T04:24:21.423Z,51.70
2018-02-20T04:26:49.389Z,51.50
2018-02-20T04:29:16.899Z,51.60
2018-02-20T04:31:44.451Z,51.40
2018-02-20T04:34:12.004Z,51.50
2018-02-20T04:36:39.563Z,51.50
2018-02-20T04:39:07.100Z,52.20
2018-02-20T04:41:34.670Z,51.60
2018-02-20T04:44:02.280Z,51.60
2018-02-20T04:46:29.844Z,52.00
2018-02-20T04:48:57.412Z,51.70
2018-02-20T04:51:24.964Z,51.40
2018-02-20T04:53:52.520Z,51.30
2018-02-20T04:56:20.048Z,51.10
2018-02-20T04:58:47.620Z,51.40
2018-02-20T05:01:15.129Z,51.30
2018-02-20T05:03:42.692Z,51.20
2018-02-20T05:06:10.229Z,51.10
2018-02-20T05:08:37.808Z,51.10
2018-02-20T05:11:05.356Z,51.00
2018-02-20T05:13:32.924Z,51.00
2018-02-20T05:16:00.454Z,50.90
2018-02-20T05:18:27.964Z,50.80
2018-02-20T05:20:55.524Z,50.90
2018-02-20T05:23:23.046Z,50.90
2018-02-20T05:25:50.696Z,51.10
2018-02-20T05:28:18.265Z,50.90
2018-02-20T05:30:45.834Z,50.80
2018-02-20T05:33:13.440Z,50.70
2018-02-20T05:35:40.991Z,50.70
2018-02-20T05:38:08.597Z,50.90
2018-02-20T05:40:36.143Z,50.70
2018-02-20T05:43:04.469Z,51.10
2018-02-20T05:45:32.810Z,51.20
2018-02-20T05:48:01.139Z,51.10
2018-02-20T05:50:28.672Z,51.00
2018-02-20T05:52:56.289Z,51.00
2018-02-20T05:55:23.808Z,51.10
2018-02-20T05:57:51.398Z,51.00
2018-02-20T06:00:18.927Z,51.00
2018-02-20T06:02:46.468Z,50.70
2018-02-20T06:05:14.010Z,50.70
2018-02-20T06:07:41.618Z,50.50
2018-02-20T06:10:09.183Z,50.70
2018-02-20T06:12:36.700Z,50.30
2018-02-20T06:15:04.260Z,50.30
2018-02-20T06:17:31.861Z,50.20
2018-02-20T06:19:59.475Z,50.50
2018-02-20T06:22:27.074Z,50.90
2018-02-20T06:24:54.618Z,50.90
2018-02-20T06:27:22.145Z,50.50
2018-02-20T06:29:49.737Z,49.90
2018-02-20T06:32:17.375Z,49.80
2018-02-20T06:34:45.667Z,50.00
2018-02-20T06:37:13.303Z,50.00
2018-02-20T06:39:40.901Z,50.10
2018-02-20T06:42:08.494Z,50.30
2018-02-20T06:44:36.024Z,50.30
2018-02-20T06:47:03.644Z,50.60
2018-02-20T06:49:31.264Z,50.40
2018-02-20T06:51:59.710Z,50.50
2018-02-20T06:54:27.249Z,50.50
2018-02-20T06:56:55.643Z,50.70
2018-02-20T06:59:23.173Z,50.60
2018-02-20T07:01:50.800Z,50.20
2018-02-20T07:04:18.388Z,50.10
2018-02-20T07:06:45.916Z,50.60
2018-02-20T07:09:13.480Z,50.70
2018-02-20T07:11:41.067Z,50.80
2018-02-20T07:14:08.676Z,50.80
2018-02-20T07:16:36.235Z,51.00
2018-02-20T07:19:04.515Z,51.10
2018-02-20T07:21:32.067Z,51.10
2018-02-20T07:23:59.661Z,51.40
2018-02-20T07:26:27.281Z,50.70
2018-02-20T07:28:55.005Z,51.10
2018-02-20T07:31:22.782Z,50.90
2018-02-20T07:33:50.332Z,50.50
2018-02-20T07:36:17.969Z,50.90
2018-02-20T07:38:45.659Z,50.70
2018-02-20T07:41:13.305Z,50.90
2018-02-20T07:43:40.872Z,51.10
2018-02-20T07:46:08.552Z,50.90
2018-02-20T07:48:36.168Z,50.90
2018-02-20T07:51:03.822Z,50.20
2018-02-20T07:53:31.446Z,50.10
2018-02-20T07:55:59.043Z,50.40
2018-02-20T07:58:27.162Z,50.70
2018-02-20T08:00:54.751Z,51.10
2018-02-20T08:03:22.381Z,51.80
2018-02-20T08:05:49.895Z,51.30
2018-02-20T08:08:17.452Z,51.30
2018-02-20T08:10:44.993Z,51.50
2018-02-20T08:13:12.540Z,51.40
2018-02-20T08:15:40.899Z,51.60
2018-02-20T08:18:08.454Z,51.60
2018-02-20T08:20:36.007Z,51.60
2018-02-20T08:23:03.694Z,51.40
2018-02-20T08:25:31.388Z,51.30
2018-02-20T08:27:58.987Z,51.50
2018-02-20T08:30:26.556Z,51.30
2018-02-20T08:32:54.171Z,51.30
2018-02-20T08:35:21.724Z,51.20
2018-02-20T08:37:49.311Z,51.40
2018-02-20T08:40:16.896Z,51.30
2018-02-20T08:42:44.808Z,51.20
2018-02-20T08:45:12.388Z,51.20
2018-02-20T08:47:40.002Z,51.20
2018-02-20T08:50:07.559Z,51.00
2018-02-20T08:52:35.082Z,51.20
2018-02-20T08:55:02.626Z,51.00
2018-02-20T08:57:30.246Z,51.20
2018-02-20T08:59:57.840Z,50.90
2018-02-20T09:02:25.401Z,50.50
2018-02-20T09:04:53.257Z,50.30
2018-02-20T09:07:20.877Z,50.40
2018-02-20T09:09:48.465Z,50.00
2018-02-20T09:12:16.113Z,49.60
2018-02-20T09:14:43.734Z,49.40
2018-02-20T09:17:11.272Z,49.20
2018-02-20T09:19:38.871Z,49.50
2018-02-20T09:22:06.674Z,49.50
2018-02-20T09:24:34.264Z,49.10
2018-02-20T09:27:01.845Z,49.20
2018-02-20T09:29:29.471Z,49.20
2018-02-20T09:31:57.059Z,49.20
2018-02-20T09:34:24.648Z,48.80
2018-02-20T09:36:52.220Z,48.80
2018-02-20T09:39:19.787Z,49.00
2018-02-20T09:41:47.356Z,49.30
2018-02-20T09:44:14.928Z,49.10
2018-02-20T09:46:42.523Z,49.00
2018-02-20T09:49:10.104Z,49.10
2018-02-20T09:51:37.664Z,49.70
2018-02-20T09:54:05.228Z,49.60
2018-02-20T09:56:32.839Z,49.40
2018-02-20T09:59:00.372Z,49.20
2018-02-20T10:01:27.969Z,49.30
2018-02-20T10:03:56.306Z,49.40
2018-02-20T10:06:23.904Z,49.40
2018-02-20T10:08:51.664Z,49.00
2018-02-20T10:11:19.688Z,49.00
2018-02-20T10:13:47.284Z,49.00
2018-02-20T10:16:14.864Z,49.30
2018-02-20T10:18:42.466Z,49.40
2018-02-20T10:21:10.053Z,49.20
2018-02-20T10:23:37.594Z,49.30
2018-02-20T10:26:05.146Z,49.00
2018-02-20T10:28:32.750Z,49.70
2018-02-20T10:31:00.265Z,50.00
2018-02-20T10:33:27.826Z,50.10
2018-02-20T10:35:55.368Z,50.10
2018-02-20T10:38:22.950Z,50.10
2018-02-20T10:40:50.467Z,49.90
2018-02-20T10:43:17.985Z,49.90
2018-02-20T10:45:45.547Z,49.70
2018-02-20T10:48:13.108Z,49.60
2018-02-20T10:50:40.748Z,49.40
2018-02-20T10:53:08.302Z,49.70
2018-02-20T10:55:35.864Z,49.60
2018-02-20T10:58:03.482Z,49.60
2018-02-20T11:00:31.825Z,49.50
2018-02-20T11:02:59.441Z,49.50
2018-02-20T11:05:27.228Z,49.20
2018-02-20T11:07:54.843Z,49.50
2018-02-20T11:10:22.403Z,49.50
2018-02-20T11:12:49.951Z,49.50
2018-02-20T11:15:17.572Z,49.30
2018-02-20T11:17:45.116Z,49.10
2018-02-20T11:20:12.743Z,49.30
2018-02-20T11:22:40.457Z,49.40
2018-02-20T11:25:08.007Z,48.90
2018-02-20T11:27:35.559Z,49.70
2018-02-20T11:30:03.172Z,49.20
2018-02-20T11:32:30.816Z,48.90
2018-02-20T11:34:58.380Z,48.80
2018-02-20T11:37:26.923Z,49.10
2018-02-20T11:39:54.548Z,49.20
2018-02-20T11:42:22.112Z,49.10
2018-02-20T11:44:49.675Z,49.00
2018-02-20T11:47:17.453Z,49.20
2018-02-20T11:49:45.833Z,49.60
2018-02-20T11:52:14.132Z,49.40
2018-02-20T11:54:41.757Z,49.30
2018-02-20T11:57:09.576Z,49.60
2018-02-20T11:59:37.259Z,49.70
2018-02-20T12:02:04.923Z,49.30
2018-02-20T12:04:32.514Z,49.50
2018-02-20T12:07:00.085Z,49.10
2018-02-20T12:09:27.799Z,48.90
2018-02-20T12:11:55.332Z,48.90
2018-02-20T12:14:23.049Z,48.80
2018-02-20T12:16:50.644Z,48.70
2018-02-20T12:19:18.931Z,48.50
2018-02-20T12:21:46.540Z,48.50
2018-02-20T12:24:14.147Z,48.00
2018-02-20T12:26:42.467Z,48.50
2018-02-20T12:29:10.186Z,48.40
2018-02-20T12:31:37.718Z,48.20
2018-02-20T12:34:05.373Z,49.00
2018-02-20T12:36:33.105Z,48.30
2018-02-20T12:39:00.665Z,47.40
2018-02-20T12:41:28.282Z,47.10
2018-02-20T12:43:56.807Z,47.40
2018-02-20T12:46:24.435Z,47.30
2018-02-20T12:48:52.780Z,47.50
2018-02-20T12:51:20.335Z,47.50
2018-02-20T12:53:47.884Z,47.30
2018-02-20T12:56:15.448Z,47.10
2018-02-20T12:58:43.023Z,46.80
2018-02-20T13:01:10.564Z,46.80
2018-02-20T13:03:38.168Z,47.00
2018-02-20T13:06:05.816Z,47.50
2018-02-20T13:08:33.343Z,46.80
2018-02-20T13:11:00.894Z,46.90
2018-02-20T13:13:28.515Z,46.80
2018-02-20T13:15:56.114Z,47.10
2018-02-20T13:18:23.684Z,46.90
2018-02-20T13:20:51.302Z,47.20
2018-02-20T13:23:18.896Z,47.50
2018-02-20T13:25:46.492Z,48.00
2018-02-20T13:28:14.057Z,47.90
2018-02-20T13:30:41.624Z,47.90
2018-02-20T13:33:09.191Z,47.50
2018-02-20T13:35:37.568Z,47.00
2018-02-20T13:38:05.125Z,47.00
2018-02-20T13:40:32.781Z,47.90
2018-02-20T13:43:00.526Z,47.20
2018-02-20T13:45:28.070Z,47.10
2018-02-20T13:47:56.211Z,47.40
2018-02-20T13:50:24.541Z,47.60
2018-02-20T13:52:52.184Z,47.60
2018-02-20T13:55:20.598Z,47.30
2018-02-20T13:57:48.174Z,47.20
2018-02-20T14:00:15.796Z,46.90
2018-02-20T14:02:43.356Z,46.90
2018-02-20T14:05:10.904Z,47.20
2018-02-20T14:07:38.476Z,47.20
2018-02-20T14:10:06.086Z,47.40
2018-02-20T14:12:33.640Z,47.70
2018-02-20T14:15:01.259Z,48.00
2018-02-20T14:17:28.811Z,47.70
2018-02-20T14:19:56.364Z,47.60
2018-02-20T14:22:24.784Z,47.60
2018-02-20T14:24:52.381Z,47.50
2018-02-20T14:27:20.029Z,47.50
2018-02-20T14:29:48.409Z,48.10
2018-02-20T14:32:16.116Z,48.00
2018-02-20T14:34:43.850Z,47.90
2018-02-20T14:37:11.446Z,48.10
2018-02-20T14:39:39.028Z,48.50
2018-02-20T14:42:06.612Z,48.90
2018-02-20T14:44:34.940Z,49.20
2018-02-20T14:47:02.512Z,49.20
2018-02-20T14:49:30.157Z,49.30
2018-02-20T14:51:57.818Z,49.60
2018-02-20T14:54:25.402Z,49.80
2018-02-20T14:56:53.001Z,50.00
2018-02-20T14:59:21.542Z,50.20
2018-02-20T15:01:49.304Z,50.20
2018-02-20T15:04:16.828Z,50.40
2018-02-20T15:06:44.629Z,50.30
2018-02-20T15:09:12.180Z,50.10
2018-02-20T15:11:39.734Z,50.20
2018-02-20T15:14:07.334Z,50.60
2018-02-20T15:16:34.907Z,50.70
2018-02-20T15:19:02.563Z,50.80
2018-02-20T15:21:30.278Z,51.00
2018-02-20T15:23:57.852Z,50.70
2018-02-20T15:26:25.382Z,49.40
2018-02-20T15:28:52.943Z,49.60
2018-02-20T15:31:21.256Z,50.00
2018-02-20T15:33:48.824Z,49.90
2018-02-20T15:36:16.438Z,49.90
2018-02-20T15:38:44.087Z,50.50
2018-02-20T15:41:12.331Z,50.00
2018-02-20T15:43:39.908Z,50.00
2018-02-20T15:46:07.443Z,50.30
2018-02-20T15:48:35.035Z,50.30
2018-02-20T15:51:03.345Z,50.30
2018-02-20T15:53:30.996Z,50.30
2018-02-20T15:55:58.583Z,50.10
2018-02-20T15:58:26.154Z,50.10
2018-02-20T16:00:54.093Z,50.20
2018-02-20T16:03:21.884Z,50.30
2018-02-20T16:05:49.465Z,50.30
2018-02-20T16:08:16.989Z,51.10
2018-02-20T16:10:44.640Z,50.30
2018-02-20T16:13:12.264Z,50.30
2018-02-20T16:15:39.801Z,50.20
2018-02-20T16:18:07.384Z,50.40
2018-02-20T16:20:35.081Z,50.30
2018-02-20T16:23:02.730Z,50.40
2018-02-20T16:25:30.298Z,50.50
2018-02-20T16:27:57.866Z,50.60
2018-02-20T16:30:25.420Z,50.70
2018-02-20T16:32:53.158Z,50.40
2018-02-20T16:35:20.860Z,50.50
2018-02-20T16:37:48.463Z,50.50
2018-02-20T16:40:15.994Z,50.50
2018-02-20T16:42:43.609Z,50.30
2018-02-20T16:45:11.152Z,50.60
2018-02-20T16:47:38.712Z,50.40
2018-02-20T16:50:06.268Z,50.10
2018-02-20T16:52:33.897Z,50.10
2018-02-20T16:55:01.457Z,50.70
2018-02-20T16:57:29.021Z,50.30
2018-02-20T16:59:56.581Z,50.50
2018-02-20T17:02:24.164Z,50.00
2018-02-20T17:04:51.703Z,50.20
2018-02-20T17:07:19.296Z,50.10
2018-02-20T17:09:46.893Z,50.20
2018-02-20T17:12:14.456Z,49.80
2018-02-20T17:14:41.980Z,49.80
2018-02-20T17:17:09.558Z,49.60
2018-02-20T17:19:37.136Z,49.40
2018-02-20T17:22:05.536Z,49.40
2018-02-20T17:24:33.085Z,49.40
2018-02-20T17:27:00.633Z,49.00
2018-02-20T17:29:28.205Z,49.00
2018-02-20T17:31:55.752Z,49.40
2018-02-20T17:34:23.365Z,49.30
2018-02-20T17:36:50.887Z,48.90
2018-02-20T17:39:18.581Z,49.00
2018-02-20T17:41:46.121Z,49.20
2018-02-20T17:44:13.679Z,49.30
2018-02-20T17:46:41.272Z,49.40
2018-02-20T17:49:08.820Z,49.20
2018-02-20T17:51:36.392Z,49.00
2018-02-20T17:54:03.929Z,48.80
2018-02-20T17:56:31.497Z,48.80
2018-02-20T17:58:59.051Z,49.10
2018-02-20T18:01:26.619Z,49.20
2018-02-20T18:03:54.269Z,49.20
2018-02-20T18:06:21.844Z,49.20
2018-02-20T18:08:49.383Z,48.90
2018-02-20T18:11:16.932Z,49.00
2018-02-20T18:13:44.465Z,48.80
2018-02-20T18:16:12.821Z,48.80
2018-02-20T18:18:40.369Z,48.70
2018-02-20T18:21:07.929Z,48.50
2018-02-20T18:23:35.553Z,48.80
2018-02-20T18:26:03.153Z,49.10
2018-02-20T18:28:30.677Z,48.30
2018-02-20T18:30:58.310Z,48.60
2018-02-20T18:33:26.602Z,48.90
2018-02-20T18:35:54.168Z,48.80
2018-02-20T18:38:22.490Z,49.20
2018-02-20T18:40:50.053Z,49.30
2018-02-20T18:43:17.601Z,49.10
2018-02-20T18:45:45.130Z,49.20
2018-02-20T18:48:12.680Z,49.10
2018-02-20T18:50:40.223Z,49.30
2018-02-20T18:53:07.791Z,49.60
2018-02-20T18:55:35.361Z,49.50
2018-02-20T18:58:02.927Z,49.50
2018-02-20T19:00:30.457Z,49.40
2018-02-20T19:02:58.013Z,49.60
2018-02-20T19:05:25.571Z,49.70
2018-02-20T19:07:53.099Z,50.40
2018-02-20T19:10:20.724Z,49.50
2018-02-20T19:12:48.256Z,49.50
2018-02-20T19:15:15.833Z,49.40
2018-02-20T19:17:43.444Z,49.60
2018-02-20T19:20:11.004Z,49.90
2018-02-20T19:22:38.564Z,50.10
2018-02-20T19:25:06.136Z,50.20
2018-02-20T19:27:33.689Z,50.60
2018-02-20T19:30:01.308Z,50.50
2018-02-20T19:32:28.897Z,50.60
2018-02-20T19:34:56.445Z,51.20
2018-02-20T19:37:24.029Z,51.40
2018-02-20T19:39:51.584Z,51.00
2018-02-20T19:42:19.180Z,51.10
2018-02-20T19:44:47.523Z,51.70
2018-02-20T19:47:15.043Z,51.60
2018-02-20T19:49:42.571Z,51.70
2018-02-20T19:52:10.140Z,51.70
2018-02-20T19:54:37.719Z,51.80
2018-02-20T19:57:06.081Z,52.50
2018-02-20T19:59:34.473Z,52.30
2018-02-20T20:02:02.756Z,52.50
2018-02-20T20:04:30.377Z,52.50
2018-02-20T20:06:57.906Z,52.80
2018-02-20T20:09:25.538Z,52.90
2018-02-20T20:11:53.857Z,53.30
2018-02-20T20:14:21.419Z,53.30
2018-02-20T20:16:49.811Z,53.90
2018-02-20T20:19:17.398Z,53.90
2018-02-20T20:21:44.979Z,53.40
2018-02-20T20:24:12.567Z,54.00
2018-02-20T20:26:40.132Z,54.30
2018-02-20T20:29:07.659Z,53.80
2018-02-20T20:31:35.290Z,54.50
2018-02-20T20:34:02.863Z,54.10
2018-02-20T20:36:31.167Z,54.00
2018-02-20T20:38:58.750Z,53.90
2018-02-20T20:41:26.309Z,54.00
2018-02-20T20:43:53.874Z,54.00
2018-02-20T20:46:22.194Z,53.60
2018-02-20T20:48:49.807Z,53.60
2018-02-20T20:51:17.344Z,53.90
2018-02-20T20:53:44.909Z,54.00
2018-02-20T20:56:12.482Z,54.20
2018-02-20T20:58:40.070Z,54.10
2018-02-20T21:01:07.643Z,53.80
2018-02-20T21:03:36.099Z,53.40
2018-02-20T21:06:03.649Z,53.80
2018-02-20T21:08:31.189Z,54.00
2018-02-20T21:10:58.772Z,54.30
2018-02-20T21:13:26.305Z,54.20
2018-02-20T21:15:53.844Z,54.00
2018-02-20T21:18:21.427Z,54.70
2018-02-20T21:20:48.954Z,54.40
2018-02-20T21:23:16.520Z,54.50
2018-02-20T21:25:44.096Z,54.90
2018-02-20T21:28:12.408Z,54.50
2018-02-20T21:30:40.787Z,54.30
2018-02-20T21:33:09.112Z,54.60
2018-02-20T21:35:36.676Z,54.60
2018-02-20T21:38:04.984Z,54.40
2018-02-20T21:40:32.564Z,54.40
2018-02-20T21:43:00.165Z,54.30
2018-02-20T21:45:27.684Z,54.40
2018-02-20T21:47:55.244Z,54.40
2018-02-20T21:50:22.764Z,54.30
2018-02-20T21:52:50.357Z,54.50
2018-02-20T21:55:18.642Z,54.20
2018-02-20T21:57:46.152Z,54.20
2018-02-20T22:00:13.721Z,54.30
2018-02-20T22:02:42.021Z,55.00
2018-02-20T22:05:09.587Z,55.00
2018-02-20T22:07:37.134Z,55.00
2018-02-20T22:10:04.714Z,54.50
2018-02-20T22:12:32.281Z,54.60
2018-02-20T22:14:59.882Z,55.00
2018-02-20T22:17:27.505Z,54.80
2018-02-20T22:19:55.145Z,54.60
2018-02-20T22:22:22.702Z,54.40
2018-02-20T22:24:50.233Z,54.70
2018-02-20T22:27:17.806Z,54.60
2018-02-20T22:29:45.348Z,54.50
2018-02-20T22:32:12.907Z,53.80
2018-02-20T22:34:40.439Z,53.80
2018-02-20T22:37:07.983Z,53.20
2018-02-20T22:39:36.327Z,54.20
2018-02-20T22:42:03.869Z,54.00
2018-02-20T22:44:31.429Z,54.00
2018-02-20T22:46:58.973Z,54.50
2018-02-20T22:49:26.584Z,53.90
2018-02-20T22:51:54.292Z,54.30
2018-02-20T22:54:21.835Z,54.20
2018-02-20T22:56:49.384Z,53.60
2018-02-20T22:59:16.945Z,53.70
2018-02-20T23:01:44.452Z,53.20
2018-02-20T23:04:12.060Z,53.20
2018-02-20T23:06:39.621Z,52.70
2018-02-20T23:09:07.131Z,52.30
2018-02-20T23:11:53.291Z,52.60
2018-02-20T23:14:20.816Z,53.00
2018-02-20T23:16:49.140Z,53.30
2018-02-20T23:19:16.693Z,53.30
2018-02-20T23:21:44.256Z,53.30
2018-02-20T23:24:11.774Z,52.90
2018-02-20T23:26:39.332Z,53.00
2018-02-20T23:29:06.891Z,52.80
2018-02-20T23:31:34.452Z,53.10
2018-02-20T23:34:02.056Z,52.90
2018-02-20T23:36:29.567Z,53.00
2018-02-20T23:38:57.175Z,53.20
2018-02-20T23:41:24.696Z,53.10
2018-02-20T23:43:53.063Z,52.90
2018-02-20T23:46:21.343Z,53.20
2018-02-20T23:48:49.704Z,53.10
2018-02-20T23:51:22.795Z,53.20
2018-02-20T23:53:52.091Z,53.00
2018-02-20T23:56:19.642Z,53.00
2018-02-20T23:58:47.163Z,53.10
